Decoded Metar for KMRY (MONTEREY in CA, USA) (IATA:MRY) | Meteo·Mobile Aviation Weather
aviador You're here:

KMRY Decoded Metar

MONTEREY in CA, USA
Report Time2019-01-20 21:07:00
UTC Time2019-01-20 21:41:26
Flight Rules mvfr MVFR
Wind190° at 12 Gusting to 17 kt
W.Decomp.*RWY 10: 3.1 kt HW 11.6 kt RCW
W.Rank190° ranks 17
Current wind is above 190° avg. (5.0)
Visibility9999 m
Phenomena:N/A
Clouds:Few 010 Hf
Broken 014 Hf
Overcast 022 Hf
Expected CloudBase > 1,600 ft AGL from Temp-Dew spread
Ceiling1,400 ft
Temp16°C (ISA +1)
Dew Point12°C (77% RH)
AAT12.3°C
QNH1018 hPa
Density Alt407 ft
Elevation217 ft
Report Wrong Elevation
Raw Report
KMRY 202107Z 19012G17KT 8SM FEW010 BKN014 OVC022 16/12 A3007 RMK
AO2 T01560122=

Extra information for KMRY:More info

Metar Taf Metar & Taf Last 4 Metars F.Rules Stats Wind Profile Meteogram Temp Stats Airport Information Weather charts Add Link Nearby VenuesMetar ALERT Operation Metar Decoded Social comments

AIRNAV info for KMRY